sensor_id;sensor_type;location;lat;lon;timestamp;P1;durP1;ratioP1;P2;durP2;ratioP2
52124;SDS011;38119;52.710;6.398;2023-05-07T00:01:17;21.85;;;18.17;;
52124;SDS011;38119;52.710;6.398;2023-05-07T00:03:43;21.58;;;17.52;;
52124;SDS011;38119;52.710;6.398;2023-05-07T00:06:09;21.77;;;16.75;;
52124;SDS011;38119;52.710;6.398;2023-05-07T00:08:37;24.45;;;18.50;;
52124;SDS011;38119;52.710;6.398;2023-05-07T00:11:03;23.83;;;18.83;;
52124;SDS011;38119;52.710;6.398;2023-05-07T00:13:29;23.45;;;18.60;;
52124;SDS011;38119;52.710;6.398;2023-05-07T00:16:00;22.90;;;17.48;;
52124;SDS011;38119;52.710;6.398;2023-05-07T00:18:28;23.63;;;18.05;;
52124;SDS011;38119;52.710;6.398;2023-05-07T00:20:54;25.35;;;19.27;;
52124;SDS011;38119;52.710;6.398;2023-05-07T00:23:20;25.35;;;18.13;;
52124;SDS011;38119;52.710;6.398;2023-05-07T00:25:45;23.08;;;18.60;;
52124;SDS011;38119;52.710;6.398;2023-05-07T00:28:11;23.77;;;18.45;;
52124;SDS011;38119;52.710;6.398;2023-05-07T00:30:36;23.40;;;17.88;;
52124;SDS011;38119;52.710;6.398;2023-05-07T00:33:02;24.88;;;18.48;;
52124;SDS011;38119;52.710;6.398;2023-05-07T00:35:28;24.92;;;18.63;;
52124;SDS011;38119;52.710;6.398;2023-05-07T00:37:54;24.00;;;17.33;;
52124;SDS011;38119;52.710;6.398;2023-05-07T00:40:20;25.52;;;18.88;;
52124;SDS011;38119;52.710;6.398;2023-05-07T00:42:46;22.67;;;18.48;;
52124;SDS011;38119;52.710;6.398;2023-05-07T00:45:12;22.15;;;18.38;;
52124;SDS011;38119;52.710;6.398;2023-05-07T00:47:39;22.55;;;17.63;;
52124;SDS011;38119;52.710;6.398;2023-05-07T00:50:05;24.98;;;18.90;;
52124;SDS011;38119;52.710;6.398;2023-05-07T00:52:32;22.88;;;18.15;;
52124;SDS011;38119;52.710;6.398;2023-05-07T00:54:57;24.77;;;18.10;;
52124;SDS011;38119;52.710;6.398;2023-05-07T00:57:29;24.40;;;18.00;;
52124;SDS011;38119;52.710;6.398;2023-05-07T00:59:57;24.60;;;17.30;;
52124;SDS011;38119;52.710;6.398;2023-05-07T01:02:23;24.33;;;17.70;;
52124;SDS011;38119;52.710;6.398;2023-05-07T01:04:48;24.58;;;16.73;;
52124;SDS011;38119;52.710;6.398;2023-05-07T01:07:14;22.75;;;17.10;;
52124;SDS011;38119;52.710;6.398;2023-05-07T01:09:40;21.17;;;15.82;;
52124;SDS011;38119;52.710;6.398;2023-05-07T01:12:06;20.88;;;15.80;;
52124;SDS011;38119;52.710;6.398;2023-05-07T01:14:32;20.13;;;15.75;;
52124;SDS011;38119;52.710;6.398;2023-05-07T01:16:58;21.42;;;15.05;;
52124;SDS011;38119;52.710;6.398;2023-05-07T01:19:24;19.90;;;14.00;;
52124;SDS011;38119;52.710;6.398;2023-05-07T01:21:50;22.58;;;14.90;;
52124;SDS011;38119;52.710;6.398;2023-05-07T01:24:16;20.17;;;13.93;;
52124;SDS011;38119;52.710;6.398;2023-05-07T01:26:43;22.58;;;14.23;;
52124;SDS011;38119;52.710;6.398;2023-05-07T01:29:09;18.23;;;13.75;;
52124;SDS011;38119;52.710;6.398;2023-05-07T01:31:35;17.38;;;13.50;;
52124;SDS011;38119;52.710;6.398;2023-05-07T01:34:02;16.30;;;12.43;;
52124;SDS011;38119;52.710;6.398;2023-05-07T01:36:29;19.02;;;13.00;;
52124;SDS011;38119;52.710;6.398;2023-05-07T01:38:56;16.25;;;12.68;;
52124;SDS011;38119;52.710;6.398;2023-05-07T01:41:23;15.85;;;13.63;;
52124;SDS011;38119;52.710;6.398;2023-05-07T01:43:49;17.23;;;13.55;;
52124;SDS011;38119;52.710;6.398;2023-05-07T01:46:17;18.33;;;13.50;;
52124;SDS011;38119;52.710;6.398;2023-05-07T01:48:43;15.80;;;13.13;;
52124;SDS011;38119;52.710;6.398;2023-05-07T01:51:10;19.00;;;13.40;;
52124;SDS011;38119;52.710;6.398;2023-05-07T01:53:37;18.42;;;14.38;;
52124;SDS011;38119;52.710;6.398;2023-05-07T01:56:03;18.98;;;14.10;;
52124;SDS011;38119;52.710;6.398;2023-05-07T01:58:29;20.33;;;14.48;;
52124;SDS011;38119;52.710;6.398;2023-05-07T02:00:54;18.67;;;13.93;;
52124;SDS011;38119;52.710;6.398;2023-05-07T02:03:20;19.38;;;14.25;;
52124;SDS011;38119;52.710;6.398;2023-05-07T02:05:46;19.27;;;14.63;;
52124;SDS011;38119;52.710;6.398;2023-05-07T02:08:11;21.38;;;14.75;;
52124;SDS011;38119;52.710;6.398;2023-05-07T02:10:37;22.17;;;15.98;;
52124;SDS011;38119;52.710;6.398;2023-05-07T02:13:02;22.80;;;17.05;;
52124;SDS011;38119;52.710;6.398;2023-05-07T02:15:28;21.77;;;16.63;;
52124;SDS011;38119;52.710;6.398;2023-05-07T02:17:58;21.60;;;17.73;;
52124;SDS011;38119;52.710;6.398;2023-05-07T02:20:34;25.60;;;17.15;;
52124;SDS011;38119;52.710;6.398;2023-05-07T02:23:00;22.83;;;16.98;;
52124;SDS011;38119;52.710;6.398;2023-05-07T02:25:25;22.77;;;17.77;;
52124;SDS011;38119;52.710;6.398;2023-05-07T02:27:51;22.77;;;17.15;;
52124;SDS011;38119;52.710;6.398;2023-05-07T02:30:17;21.98;;;17.63;;
52124;SDS011;38119;52.710;6.398;2023-05-07T02:32:43;22.35;;;18.23;;
52124;SDS011;38119;52.710;6.398;2023-05-07T02:35:08;22.35;;;17.52;;
52124;SDS011;38119;52.710;6.398;2023-05-07T02:37:34;22.30;;;17.55;;
52124;SDS011;38119;52.710;6.398;2023-05-07T02:40:00;23.33;;;17.17;;
52124;SDS011;38119;52.710;6.398;2023-05-07T02:42:25;23.55;;;18.63;;
52124;SDS011;38119;52.710;6.398;2023-05-07T02:44:51;23.30;;;17.35;;
52124;SDS011;38119;52.710;6.398;2023-05-07T02:47:16;23.30;;;17.38;;
52124;SDS011;38119;52.710;6.398;2023-05-07T02:49:43;23.52;;;17.83;;
52124;SDS011;38119;52.710;6.398;2023-05-07T02:52:08;24.20;;;17.88;;
52124;SDS011;38119;52.710;6.398;2023-05-07T02:54:34;23.80;;;17.70;;
52124;SDS011;38119;52.710;6.398;2023-05-07T02:56:59;24.77;;;17.40;;
52124;SDS011;38119;52.710;6.398;2023-05-07T02:59:25;23.38;;;18.27;;
52124;SDS011;38119;52.710;6.398;2023-05-07T03:01:51;23.92;;;17.95;;
52124;SDS011;38119;52.710;6.398;2023-05-07T03:04:17;23.98;;;18.20;;
52124;SDS011;38119;52.710;6.398;2023-05-07T03:06:42;24.83;;;18.02;;
52124;SDS011;38119;52.710;6.398;2023-05-07T03:09:08;25.08;;;18.40;;
52124;SDS011;38119;52.710;6.398;2023-05-07T03:11:33;24.83;;;18.50;;
52124;SDS011;38119;52.710;6.398;2023-05-07T03:14:00;26.13;;;19.13;;
52124;SDS011;38119;52.710;6.398;2023-05-07T03:16:26;25.83;;;18.98;;
52124;SDS011;38119;52.710;6.398;2023-05-07T03:18:52;23.90;;;18.77;;
52124;SDS011;38119;52.710;6.398;2023-05-07T03:21:18;24.38;;;19.17;;
52124;SDS011;38119;52.710;6.398;2023-05-07T03:23:44;24.75;;;19.05;;
52124;SDS011;38119;52.710;6.398;2023-05-07T03:26:09;28.75;;;19.77;;
52124;SDS011;38119;52.710;6.398;2023-05-07T03:28:35;26.90;;;20.83;;
52124;SDS011;38119;52.710;6.398;2023-05-07T03:31:02;27.02;;;20.42;;
52124;SDS011;38119;52.710;6.398;2023-05-07T03:33:27;26.30;;;19.73;;
52124;SDS011;38119;52.710;6.398;2023-05-07T03:35:53;26.90;;;19.95;;
52124;SDS011;38119;52.710;6.398;2023-05-07T03:38:18;30.52;;;21.55;;
52124;SDS011;38119;52.710;6.398;2023-05-07T03:40:44;28.00;;;21.95;;
52124;SDS011;38119;52.710;6.398;2023-05-07T03:43:10;28.38;;;20.58;;
52124;SDS011;38119;52.710;6.398;2023-05-07T03:45:35;30.23;;;21.55;;
52124;SDS011;38119;52.710;6.398;2023-05-07T03:48:01;30.88;;;21.58;;
52124;SDS011;38119;52.710;6.398;2023-05-07T03:50:26;29.65;;;21.65;;
52124;SDS011;38119;52.710;6.398;2023-05-07T03:52:52;32.38;;;22.50;;
52124;SDS011;38119;52.710;6.398;2023-05-07T03:55:17;29.17;;;22.52;;
52124;SDS011;38119;52.710;6.398;2023-05-07T03:57:43;32.42;;;22.83;;
52124;SDS011;38119;52.710;6.398;2023-05-07T04:00:09;33.05;;;23.10;;
52124;SDS011;38119;52.710;6.398;2023-05-07T04:02:35;31.30;;;23.02;;
52124;SDS011;38119;52.710;6.398;2023-05-07T04:05:00;33.67;;;23.38;;
52124;SDS011;38119;52.710;6.398;2023-05-07T04:07:26;32.20;;;23.55;;
52124;SDS011;38119;52.710;6.398;2023-05-07T04:09:51;35.72;;;25.15;;
52124;SDS011;38119;52.710;6.398;2023-05-07T04:12:17;35.45;;;24.75;;
52124;SDS011;38119;52.710;6.398;2023-05-07T04:14:42;34.67;;;25.33;;
52124;SDS011;38119;52.710;6.398;2023-05-07T04:17:08;35.55;;;25.02;;
52124;SDS011;38119;52.710;6.398;2023-05-07T04:19:35;37.75;;;25.98;;
52124;SDS011;38119;52.710;6.398;2023-05-07T04:22:01;36.38;;;26.40;;
52124;SDS011;38119;52.710;6.398;2023-05-07T04:24:27;36.33;;;25.95;;
52124;SDS011;38119;52.710;6.398;2023-05-07T04:26:52;37.17;;;26.02;;
52124;SDS011;38119;52.710;6.398;2023-05-07T04:29:18;40.20;;;25.75;;
52124;SDS011;38119;52.710;6.398;2023-05-07T04:31:43;36.67;;;26.17;;
52124;SDS011;38119;52.710;6.398;2023-05-07T04:34:10;35.72;;;25.92;;
52124;SDS011;38119;52.710;6.398;2023-05-07T04:36:37;38.63;;;26.20;;
52124;SDS011;38119;52.710;6.398;2023-05-07T04:39:03;37.75;;;26.38;;
52124;SDS011;38119;52.710;6.398;2023-05-07T04:41:29;41.42;;;27.58;;
52124;SDS011;38119;52.710;6.398;2023-05-07T04:43:55;37.40;;;26.92;;
52124;SDS011;38119;52.710;6.398;2023-05-07T04:46:21;40.15;;;25.55;;
52124;SDS011;38119;52.710;6.398;2023-05-07T04:48:48;34.97;;;26.00;;
52124;SDS011;38119;52.710;6.398;2023-05-07T04:51:14;37.97;;;27.10;;
52124;SDS011;38119;52.710;6.398;2023-05-07T04:53:40;34.78;;;26.23;;
52124;SDS011;38119;52.710;6.398;2023-05-07T04:56:05;37.40;;;27.52;;
52124;SDS011;38119;52.710;6.398;2023-05-07T04:58:31;37.35;;;26.77;;
52124;SDS011;38119;52.710;6.398;2023-05-07T05:00:57;39.78;;;27.08;;
52124;SDS011;38119;52.710;6.398;2023-05-07T05:03:23;36.25;;;26.02;;
52124;SDS011;38119;52.710;6.398;2023-05-07T05:05:49;38.65;;;27.08;;
52124;SDS011;38119;52.710;6.398;2023-05-07T05:08:16;41.33;;;27.83;;
52124;SDS011;38119;52.710;6.398;2023-05-07T05:10:42;37.35;;;26.33;;
52124;SDS011;38119;52.710;6.398;2023-05-07T05:13:08;36.17;;;25.80;;
52124;SDS011;38119;52.710;6.398;2023-05-07T05:15:34;36.35;;;26.15;;
52124;SDS011;38119;52.710;6.398;2023-05-07T05:18:00;37.95;;;27.10;;
52124;SDS011;38119;52.710;6.398;2023-05-07T05:20:26;36.65;;;26.08;;
52124;SDS011;38119;52.710;6.398;2023-05-07T05:22:51;35.92;;;26.05;;
52124;SDS011;38119;52.710;6.398;2023-05-07T05:25:17;34.25;;;26.35;;
52124;SDS011;38119;52.710;6.398;2023-05-07T05:27:42;35.97;;;25.77;;
52124;SDS011;38119;52.710;6.398;2023-05-07T05:30:08;34.38;;;25.30;;
52124;SDS011;38119;52.710;6.398;2023-05-07T05:32:34;35.45;;;26.00;;
52124;SDS011;38119;52.710;6.398;2023-05-07T05:34:59;35.17;;;25.27;;
52124;SDS011;38119;52.710;6.398;2023-05-07T05:37:25;33.03;;;24.77;;
52124;SDS011;38119;52.710;6.398;2023-05-07T05:39:51;37.58;;;26.65;;
52124;SDS011;38119;52.710;6.398;2023-05-07T05:42:17;33.97;;;25.73;;
52124;SDS011;38119;52.710;6.398;2023-05-07T05:44:43;33.75;;;24.48;;
52124;SDS011;38119;52.710;6.398;2023-05-07T05:47:08;33.80;;;25.00;;
52124;SDS011;38119;52.710;6.398;2023-05-07T05:49:34;34.38;;;24.40;;
52124;SDS011;38119;52.710;6.398;2023-05-07T05:52:00;31.98;;;23.75;;
52124;SDS011;38119;52.710;6.398;2023-05-07T05:54:25;33.65;;;24.55;;
52124;SDS011;38119;52.710;6.398;2023-05-07T05:56:51;34.85;;;24.55;;
52124;SDS011;38119;52.710;6.398;2023-05-07T05:59:16;32.00;;;23.45;;
52124;SDS011;38119;52.710;6.398;2023-05-07T06:01:42;30.55;;;23.10;;
52124;SDS011;38119;52.710;6.398;2023-05-07T06:04:07;30.23;;;22.92;;
52124;SDS011;38119;52.710;6.398;2023-05-07T06:06:33;33.28;;;23.02;;
52124;SDS011;38119;52.710;6.398;2023-05-07T06:08:59;31.77;;;24.02;;
52124;SDS011;38119;52.710;6.398;2023-05-07T06:11:24;30.08;;;22.80;;
52124;SDS011;38119;52.710;6.398;2023-05-07T06:13:50;30.77;;;22.98;;
52124;SDS011;38119;52.710;6.398;2023-05-07T06:16:16;31.70;;;23.02;;
52124;SDS011;38119;52.710;6.398;2023-05-07T06:18:42;31.85;;;22.98;;
52124;SDS011;38119;52.710;6.398;2023-05-07T06:21:07;32.63;;;23.65;;
52124;SDS011;38119;52.710;6.398;2023-05-07T06:23:33;31.15;;;23.38;;
52124;SDS011;38119;52.710;6.398;2023-05-07T06:26:01;28.67;;;22.55;;
52124;SDS011;38119;52.710;6.398;2023-05-07T06:28:26;31.38;;;22.52;;
52124;SDS011;38119;52.710;6.398;2023-05-07T06:30:52;31.00;;;22.60;;
52124;SDS011;38119;52.710;6.398;2023-05-07T06:33:18;31.23;;;23.52;;
52124;SDS011;38119;52.710;6.398;2023-05-07T06:35:44;33.25;;;22.00;;
52124;SDS011;38119;52.710;6.398;2023-05-07T06:38:10;34.17;;;23.42;;
52124;SDS011;38119;52.710;6.398;2023-05-07T06:40:37;31.15;;;23.10;;
52124;SDS011;38119;52.710;6.398;2023-05-07T06:43:02;33.17;;;23.70;;
52124;SDS011;38119;52.710;6.398;2023-05-07T06:45:28;30.20;;;22.52;;
52124;SDS011;38119;52.710;6.398;2023-05-07T06:47:54;29.92;;;23.45;;
52124;SDS011;38119;52.710;6.398;2023-05-07T06:50:19;28.83;;;22.67;;
52124;SDS011;38119;52.710;6.398;2023-05-07T06:52:45;32.08;;;23.05;;
52124;SDS011;38119;52.710;6.398;2023-05-07T06:55:10;29.25;;;22.50;;
52124;SDS011;38119;52.710;6.398;2023-05-07T06:57:36;29.92;;;23.27;;
52124;SDS011;38119;52.710;6.398;2023-05-07T07:00:02;31.20;;;22.60;;
52124;SDS011;38119;52.710;6.398;2023-05-07T07:02:31;31.45;;;22.95;;
52124;SDS011;38119;52.710;6.398;2023-05-07T07:04:57;29.48;;;22.13;;
52124;SDS011;38119;52.710;6.398;2023-05-07T07:07:23;30.52;;;23.63;;
52124;SDS011;38119;52.710;6.398;2023-05-07T07:09:49;30.27;;;22.77;;
52124;SDS011;38119;52.710;6.398;2023-05-07T07:12:14;31.02;;;23.30;;
52124;SDS011;38119;52.710;6.398;2023-05-07T07:14:40;32.00;;;23.63;;
52124;SDS011;38119;52.710;6.398;2023-05-07T07:17:05;31.88;;;24.25;;
52124;SDS011;38119;52.710;6.398;2023-05-07T07:19:31;32.70;;;24.05;;
52124;SDS011;38119;52.710;6.398;2023-05-07T07:21:56;31.45;;;23.52;;
52124;SDS011;38119;52.710;6.398;2023-05-07T07:24:22;34.85;;;24.25;;
52124;SDS011;38119;52.710;6.398;2023-05-07T07:26:48;32.38;;;23.85;;
52124;SDS011;38119;52.710;6.398;2023-05-07T07:29:13;31.05;;;23.15;;
52124;SDS011;38119;52.710;6.398;2023-05-07T07:31:39;31.17;;;23.27;;
52124;SDS011;38119;52.710;6.398;2023-05-07T07:34:04;32.85;;;24.65;;
52124;SDS011;38119;52.710;6.398;2023-05-07T07:36:30;32.95;;;24.40;;
52124;SDS011;38119;52.710;6.398;2023-05-07T07:38:55;30.65;;;23.52;;
52124;SDS011;38119;52.710;6.398;2023-05-07T07:41:21;32.67;;;24.42;;
52124;SDS011;38119;52.710;6.398;2023-05-07T07:43:47;35.83;;;25.58;;
52124;SDS011;38119;52.710;6.398;2023-05-07T07:46:12;29.23;;;23.05;;
52124;SDS011;38119;52.710;6.398;2023-05-07T07:48:38;31.38;;;24.00;;
52124;SDS011;38119;52.710;6.398;2023-05-07T07:51:03;33.40;;;24.20;;
52124;SDS011;38119;52.710;6.398;2023-05-07T07:53:29;34.00;;;25.08;;
52124;SDS011;38119;52.710;6.398;2023-05-07T07:55:55;32.83;;;24.15;;
52124;SDS011;38119;52.710;6.398;2023-05-07T07:58:20;31.58;;;24.38;;
52124;SDS011;38119;52.710;6.398;2023-05-07T08:00:47;36.85;;;25.33;;
52124;SDS011;38119;52.710;6.398;2023-05-07T08:03:12;31.58;;;23.77;;
52124;SDS011;38119;52.710;6.398;2023-05-07T08:05:39;32.60;;;25.52;;
52124;SDS011;38119;52.710;6.398;2023-05-07T08:08:04;33.10;;;25.08;;
52124;SDS011;38119;52.710;6.398;2023-05-07T08:10:31;32.70;;;24.83;;
52124;SDS011;38119;52.710;6.398;2023-05-07T08:12:59;31.38;;;23.92;;
52124;SDS011;38119;52.710;6.398;2023-05-07T08:15:25;30.70;;;23.90;;
52124;SDS011;38119;52.710;6.398;2023-05-07T08:17:51;33.88;;;25.15;;
52124;SDS011;38119;52.710;6.398;2023-05-07T08:20:16;33.25;;;24.30;;
52124;SDS011;38119;52.710;6.398;2023-05-07T08:22:42;31.13;;;23.30;;
52124;SDS011;38119;52.710;6.398;2023-05-07T08:25:08;30.98;;;24.40;;
52124;SDS011;38119;52.710;6.398;2023-05-07T08:27:34;31.52;;;23.73;;
52124;SDS011;38119;52.710;6.398;2023-05-07T08:29:59;33.17;;;25.73;;
52124;SDS011;38119;52.710;6.398;2023-05-07T08:32:25;32.42;;;23.63;;
52124;SDS011;38119;52.710;6.398;2023-05-07T08:34:50;32.05;;;23.65;;
52124;SDS011;38119;52.710;6.398;2023-05-07T08:37:16;30.15;;;24.48;;
52124;SDS011;38119;52.710;6.398;2023-05-07T08:39:42;36.63;;;25.02;;
52124;SDS011;38119;52.710;6.398;2023-05-07T08:42:07;32.33;;;24.48;;
52124;SDS011;38119;52.710;6.398;2023-05-07T08:44:36;31.10;;;23.38;;
52124;SDS011;38119;52.710;6.398;2023-05-07T08:47:06;31.30;;;24.05;;
52124;SDS011;38119;52.710;6.398;2023-05-07T08:49:32;30.23;;;23.08;;
52124;SDS011;38119;52.710;6.398;2023-05-07T08:51:59;30.52;;;23.25;;
52124;SDS011;38119;52.710;6.398;2023-05-07T08:54:25;29.73;;;22.63;;
52124;SDS011;38119;52.710;6.398;2023-05-07T08:56:52;29.88;;;23.92;;
52124;SDS011;38119;52.710;6.398;2023-05-07T08:59:18;32.58;;;23.60;;
52124;SDS011;38119;52.710;6.398;2023-05-07T09:01:44;31.20;;;22.23;;
52124;SDS011;38119;52.710;6.398;2023-05-07T09:04:09;29.98;;;23.83;;
52124;SDS011;38119;52.710;6.398;2023-05-07T09:06:35;32.28;;;24.40;;
52124;SDS011;38119;52.710;6.398;2023-05-07T09:09:02;30.15;;;23.30;;
52124;SDS011;38119;52.710;6.398;2023-05-07T09:11:30;27.35;;;22.23;;
52124;SDS011;38119;52.710;6.398;2023-05-07T09:13:56;28.70;;;22.67;;
52124;SDS011;38119;52.710;6.398;2023-05-07T09:16:29;29.77;;;23.05;;
52124;SDS011;38119;52.710;6.398;2023-05-07T09:18:57;27.05;;;21.80;;
52124;SDS011;38119;52.710;6.398;2023-05-07T09:21:25;27.38;;;21.92;;
52124;SDS011;38119;52.710;6.398;2023-05-07T09:23:51;30.35;;;21.95;;
52124;SDS011;38119;52.710;6.398;2023-05-07T09:26:18;28.42;;;22.75;;
52124;SDS011;38119;52.710;6.398;2023-05-07T09:28:46;29.40;;;22.05;;
52124;SDS011;38119;52.710;6.398;2023-05-07T09:31:11;27.10;;;21.05;;
52124;SDS011;38119;52.710;6.398;2023-05-07T09:33:38;27.15;;;22.10;;
52124;SDS011;38119;52.710;6.398;2023-05-07T09:36:04;26.15;;;21.30;;
52124;SDS011;38119;52.710;6.398;2023-05-07T09:38:32;25.30;;;20.25;;
52124;SDS011;38119;52.710;6.398;2023-05-07T09:41:12;27.77;;;20.75;;
52124;SDS011;38119;52.710;6.398;2023-05-07T09:43:38;28.48;;;22.23;;
52124;SDS011;38119;52.710;6.398;2023-05-07T09:46:10;25.77;;;21.00;;
52124;SDS011;38119;52.710;6.398;2023-05-07T09:48:38;26.67;;;21.90;;
52124;SDS011;38119;52.710;6.398;2023-05-07T09:51:06;25.67;;;21.95;;
52124;SDS011;38119;52.710;6.398;2023-05-07T09:53:39;26.35;;;21.27;;
52124;SDS011;38119;52.710;6.398;2023-05-07T09:56:05;24.40;;;21.05;;
52124;SDS011;38119;52.710;6.398;2023-05-07T09:58:31;23.88;;;19.85;;
52124;SDS011;38119;52.710;6.398;2023-05-07T10:01:01;23.90;;;19.33;;
52124;SDS011;38119;52.710;6.398;2023-05-07T10:03:28;26.70;;;20.42;;
52124;SDS011;38119;52.710;6.398;2023-05-07T10:05:57;23.52;;;19.27;;
52124;SDS011;38119;52.710;6.398;2023-05-07T10:08:24;23.35;;;20.27;;
52124;SDS011;38119;52.710;6.398;2023-05-07T10:10:50;27.73;;;20.38;;
52124;SDS011;38119;52.710;6.398;2023-05-07T10:13:16;25.15;;;20.50;;
52124;SDS011;38119;52.710;6.398;2023-05-07T10:15:44;23.17;;;19.20;;
52124;SDS011;38119;52.710;6.398;2023-05-07T10:18:10;24.88;;;19.85;;
52124;SDS011;38119;52.710;6.398;2023-05-07T10:20:37;24.50;;;19.30;;
52124;SDS011;38119;52.710;6.398;2023-05-07T10:23:04;24.60;;;20.05;;
52124;SDS011;38119;52.710;6.398;2023-05-07T10:25:31;22.23;;;19.13;;
52124;SDS011;38119;52.710;6.398;2023-05-07T10:27:59;23.73;;;18.52;;
52124;SDS011;38119;52.710;6.398;2023-05-07T10:30:38;23.83;;;18.98;;
52124;SDS011;38119;52.710;6.398;2023-05-07T10:33:28;24.77;;;18.73;;
52124;SDS011;38119;52.710;6.398;2023-05-07T10:35:57;21.80;;;17.20;;
52124;SDS011;38119;52.710;6.398;2023-05-07T10:38:25;21.13;;;18.75;;
52124;SDS011;38119;52.710;6.398;2023-05-07T10:40:52;21.25;;;17.92;;
52124;SDS011;38119;52.710;6.398;2023-05-07T10:43:18;21.17;;;18.05;;
52124;SDS011;38119;52.710;6.398;2023-05-07T10:45:44;21.45;;;19.05;;
52124;SDS011;38119;52.710;6.398;2023-05-07T10:51:27;21.85;;;19.15;;
52124;SDS011;38119;52.710;6.398;2023-05-07T10:56:38;21.88;;;18.20;;
52124;SDS011;38119;52.710;6.398;2023-05-07T11:04:18;20.95;;;18.42;;
52124;SDS011;38119;52.710;6.398;2023-05-07T11:17:54;20.40;;;16.38;;
52124;SDS011;38119;52.710;6.398;2023-05-07T11:20:20;21.55;;;16.75;;
52124;SDS011;38119;52.710;6.398;2023-05-07T11:25:59;18.70;;;16.45;;
52124;SDS011;38119;52.710;6.398;2023-05-07T11:28:38;20.33;;;16.52;;
52124;SDS011;38119;52.710;6.398;2023-05-07T11:31:05;19.25;;;17.13;;
52124;SDS011;38119;52.710;6.398;2023-05-07T11:33:31;18.13;;;15.63;;
52124;SDS011;38119;52.710;6.398;2023-05-07T11:35:57;17.00;;;14.35;;
52124;SDS011;38119;52.710;6.398;2023-05-07T11:38:24;15.88;;;13.98;;
52124;SDS011;38119;52.710;6.398;2023-05-07T11:40:54;17.38;;;15.50;;
52124;SDS011;38119;52.710;6.398;2023-05-07T11:43:21;17.77;;;15.88;;
52124;SDS011;38119;52.710;6.398;2023-05-07T11:45:47;18.55;;;16.55;;
52124;SDS011;38119;52.710;6.398;2023-05-07T11:48:14;18.63;;;15.45;;
52124;SDS011;38119;52.710;6.398;2023-05-07T11:50:49;18.83;;;15.07;;
52124;SDS011;38119;52.710;6.398;2023-05-07T11:53:16;17.58;;;14.77;;
52124;SDS011;38119;52.710;6.398;2023-05-07T11:55:42;19.27;;;14.10;;
52124;SDS011;38119;52.710;6.398;2023-05-07T11:58:10;16.60;;;14.50;;
52124;SDS011;38119;52.710;6.398;2023-05-07T12:00:37;18.33;;;14.98;;
52124;SDS011;38119;52.710;6.398;2023-05-07T12:03:03;16.48;;;14.70;;
52124;SDS011;38119;52.710;6.398;2023-05-07T12:05:30;19.15;;;15.30;;
52124;SDS011;38119;52.710;6.398;2023-05-07T12:07:56;16.05;;;14.35;;
52124;SDS011;38119;52.710;6.398;2023-05-07T12:10:22;17.58;;;14.10;;
52124;SDS011;38119;52.710;6.398;2023-05-07T12:12:50;17.70;;;15.02;;
52124;SDS011;38119;52.710;6.398;2023-05-07T12:15:16;17.95;;;15.13;;
52124;SDS011;38119;52.710;6.398;2023-05-07T12:17:42;17.42;;;14.18;;
52124;SDS011;38119;52.710;6.398;2023-05-07T12:20:08;19.15;;;16.00;;
52124;SDS011;38119;52.710;6.398;2023-05-07T12:22:35;16.67;;;14.82;;
52124;SDS011;38119;52.710;6.398;2023-05-07T12:25:01;16.85;;;14.93;;
52124;SDS011;38119;52.710;6.398;2023-05-07T12:27:27;18.88;;;16.77;;
52124;SDS011;38119;52.710;6.398;2023-05-07T12:29:53;17.73;;;14.82;;
52124;SDS011;38119;52.710;6.398;2023-05-07T12:32:20;17.27;;;15.10;;
52124;SDS011;38119;52.710;6.398;2023-05-07T12:34:49;15.35;;;13.45;;
52124;SDS011;38119;52.710;6.398;2023-05-07T12:37:15;17.92;;;15.10;;
52124;SDS011;38119;52.710;6.398;2023-05-07T12:39:47;16.60;;;14.25;;
52124;SDS011;38119;52.710;6.398;2023-05-07T12:42:16;15.80;;;13.27;;
52124;SDS011;38119;52.710;6.398;2023-05-07T12:44:45;15.82;;;13.60;;
52124;SDS011;38119;52.710;6.398;2023-05-07T12:47:11;16.70;;;13.98;;
52124;SDS011;38119;52.710;6.398;2023-05-07T12:49:37;15.20;;;13.45;;
52124;SDS011;38119;52.710;6.398;2023-05-07T12:52:04;14.80;;;13.13;;
52124;SDS011;38119;52.710;6.398;2023-05-07T12:54:30;17.60;;;14.52;;
52124;SDS011;38119;52.710;6.398;2023-05-07T12:57:03;16.73;;;13.90;;
52124;SDS011;38119;52.710;6.398;2023-05-07T12:59:40;16.10;;;14.15;;
52124;SDS011;38119;52.710;6.398;2023-05-07T13:02:06;18.50;;;14.55;;
52124;SDS011;38119;52.710;6.398;2023-05-07T13:04:33;15.80;;;14.02;;
52124;SDS011;38119;52.710;6.398;2023-05-07T13:07:00;19.42;;;14.98;;
52124;SDS011;38119;52.710;6.398;2023-05-07T13:09:26;16.13;;;14.43;;
52124;SDS011;38119;52.710;6.398;2023-05-07T13:11:51;15.73;;;13.85;;
52124;SDS011;38119;52.710;6.398;2023-05-07T13:14:17;17.23;;;14.10;;
52124;SDS011;38119;52.710;6.398;2023-05-07T13:16:43;18.27;;;14.82;;
52124;SDS011;38119;52.710;6.398;2023-05-07T13:19:08;16.38;;;14.38;;
52124;SDS011;38119;52.710;6.398;2023-05-07T13:21:34;18.50;;;13.88;;
52124;SDS011;38119;52.710;6.398;2023-05-07T13:24:00;16.75;;;14.90;;
52124;SDS011;38119;52.710;6.398;2023-05-07T13:26:25;16.35;;;14.07;;
52124;SDS011;38119;52.710;6.398;2023-05-07T13:28:52;16.25;;;14.50;;
52124;SDS011;38119;52.710;6.398;2023-05-07T13:31:18;15.93;;;14.30;;
52124;SDS011;38119;52.710;6.398;2023-05-07T13:33:45;15.82;;;13.75;;
52124;SDS011;38119;52.710;6.398;2023-05-07T13:36:11;17.60;;;14.88;;
52124;SDS011;38119;52.710;6.398;2023-05-07T13:38:37;17.73;;;14.70;;
52124;SDS011;38119;52.710;6.398;2023-05-07T13:41:04;14.35;;;12.63;;
52124;SDS011;38119;52.710;6.398;2023-05-07T13:43:29;15.77;;;13.48;;
52124;SDS011;38119;52.710;6.398;2023-05-07T13:45:56;16.45;;;13.50;;
52124;SDS011;38119;52.710;6.398;2023-05-07T13:48:22;17.48;;;13.93;;
52124;SDS011;38119;52.710;6.398;2023-05-07T13:50:47;15.55;;;13.88;;
52124;SDS011;38119;52.710;6.398;2023-05-07T13:53:13;15.07;;;13.10;;
52124;SDS011;38119;52.710;6.398;2023-05-07T13:55:42;15.45;;;13.15;;
52124;SDS011;38119;52.710;6.398;2023-05-07T13:58:07;14.18;;;12.48;;
52124;SDS011;38119;52.710;6.398;2023-05-07T14:00:33;14.88;;;12.38;;
52124;SDS011;38119;52.710;6.398;2023-05-07T14:02:59;13.52;;;12.13;;
52124;SDS011;38119;52.710;6.398;2023-05-07T14:05:25;13.93;;;12.30;;
52124;SDS011;38119;52.710;6.398;2023-05-07T14:07:52;16.10;;;13.35;;
52124;SDS011;38119;52.710;6.398;2023-05-07T14:10:19;15.38;;;13.15;;
52124;SDS011;38119;52.710;6.398;2023-05-07T14:12:45;16.23;;;13.27;;
52124;SDS011;38119;52.710;6.398;2023-05-07T14:15:11;18.13;;;14.15;;
52124;SDS011;38119;52.710;6.398;2023-05-07T14:17:36;16.33;;;13.85;;
52124;SDS011;38119;52.710;6.398;2023-05-07T14:20:02;16.00;;;14.30;;
52124;SDS011;38119;52.710;6.398;2023-05-07T14:22:28;16.45;;;14.20;;
52124;SDS011;38119;52.710;6.398;2023-05-07T14:24:53;16.90;;;13.82;;
52124;SDS011;38119;52.710;6.398;2023-05-07T14:27:19;16.48;;;14.52;;
52124;SDS011;38119;52.710;6.398;2023-05-07T14:29:45;15.30;;;13.52;;
52124;SDS011;38119;52.710;6.398;2023-05-07T14:32:15;16.80;;;14.38;;
52124;SDS011;38119;52.710;6.398;2023-05-07T14:34:42;18.65;;;13.82;;
52124;SDS011;38119;52.710;6.398;2023-05-07T14:37:07;16.27;;;14.00;;
52124;SDS011;38119;52.710;6.398;2023-05-07T14:39:33;16.40;;;14.18;;
52124;SDS011;38119;52.710;6.398;2023-05-07T14:41:58;15.48;;;12.95;;